createdAt,value
2023-05-23T00:01:46.830Z,52.48
2023-05-23T00:04:13.568Z,52.58
2023-05-23T00:06:40.296Z,52.18
2023-05-23T00:09:07.123Z,52.15
2023-05-23T00:11:33.876Z,52.33
2023-05-23T00:14:00.499Z,52.60
2023-05-23T00:16:27.189Z,52.43
2023-05-23T00:18:53.871Z,52.58
2023-05-23T00:21:20.599Z,53.07
2023-05-23T00:23:47.262Z,52.34
2023-05-23T00:26:13.880Z,52.80
2023-05-23T00:28:45.747Z,53.04
2023-05-23T00:31:12.599Z,52.98
2023-05-23T00:33:39.231Z,53.29
2023-05-23T00:36:06.108Z,53.13
2023-05-23T00:38:32.805Z,53.13
2023-05-23T00:40:59.459Z,53.17
2023-05-23T00:43:27.354Z,53.31
2023-05-23T00:45:54.058Z,53.14
2023-05-23T00:48:21.402Z,53.25
2023-05-23T00:50:48.094Z,53.92
2023-05-23T00:53:14.913Z,53.76
2023-05-23T00:55:41.665Z,53.59
2023-05-23T00:58:09.085Z,53.59
2023-05-23T01:00:36.028Z,53.47
2023-05-23T01:03:02.808Z,53.38
2023-05-23T01:05:29.706Z,53.27
2023-05-23T01:07:56.635Z,53.24
2023-05-23T01:10:28.406Z,54.05
2023-05-23T01:12:58.446Z,53.88
2023-05-23T01:15:55.884Z,54.53
2023-05-23T01:18:31.958Z,54.37
2023-05-23T01:21:09.644Z,54.16
2023-05-23T01:24:03.007Z,54.36
2023-05-23T01:27:01.203Z,54.25
2023-05-23T01:29:37.075Z,53.55
2023-05-23T01:32:07.371Z,53.55
2023-05-23T01:34:36.839Z,53.69
2023-05-23T01:37:08.896Z,53.45
2023-05-23T01:39:37.164Z,52.90
2023-05-23T01:42:04.731Z,53.02
2023-05-23T01:44:34.596Z,52.81
2023-05-23T01:47:03.382Z,52.88
2023-05-23T01:49:31.411Z,52.82
2023-05-23T01:52:00.641Z,52.67
2023-05-23T01:54:29.815Z,52.89
2023-05-23T01:57:01.477Z,53.11
2023-05-23T01:59:28.222Z,52.67
2023-05-23T02:01:56.603Z,52.67
2023-05-23T02:04:23.269Z,52.77
2023-05-23T02:06:49.914Z,52.57
2023-05-23T02:09:16.605Z,52.89
2023-05-23T02:11:44.863Z,52.66
2023-05-23T02:14:11.582Z,52.78
2023-05-23T02:16:38.419Z,52.80
2023-05-23T02:19:05.331Z,52.66
2023-05-23T02:21:34.223Z,52.78
2023-05-23T02:24:03.361Z,52.88
2023-05-23T02:26:30.505Z,53.16
2023-05-23T02:28:57.172Z,53.35
2023-05-23T02:31:24.967Z,53.12
2023-05-23T02:33:51.881Z,53.02
2023-05-23T02:36:18.565Z,53.41
2023-05-23T02:38:45.273Z,53.69
2023-05-23T02:41:12.486Z,55.26
2023-05-23T02:43:39.221Z,55.28
2023-05-23T02:46:06.133Z,55.54
2023-05-23T02:48:33.087Z,56.33
2023-05-23T02:51:00.030Z,56.07
2023-05-23T02:53:26.758Z,56.75
2023-05-23T02:55:53.984Z,56.84
2023-05-23T02:58:20.849Z,56.18
2023-05-23T03:00:47.570Z,55.98
2023-05-23T03:03:14.229Z,56.05
2023-05-23T03:05:41.123Z,55.83
2023-05-23T03:08:07.872Z,56.01
2023-05-23T03:10:34.544Z,56.10
2023-05-23T03:13:01.256Z,55.78
2023-05-23T03:15:28.037Z,56.35
2023-05-23T03:17:55.001Z,56.39
2023-05-23T03:20:21.759Z,56.11
2023-05-23T03:22:48.355Z,56.21
2023-05-23T03:25:18.837Z,56.21
2023-05-23T03:27:45.579Z,56.45
2023-05-23T03:30:12.867Z,56.32
2023-05-23T03:32:39.613Z,57.33
2023-05-23T03:35:06.889Z,57.54
2023-05-23T03:37:33.495Z,59.34
2023-05-23T03:40:00.396Z,58.40
2023-05-23T03:42:28.480Z,59.11
2023-05-23T03:44:55.762Z,58.54
2023-05-23T03:47:23.503Z,58.38
2023-05-23T03:49:51.296Z,58.61
2023-05-23T03:52:18.123Z,59.14
2023-05-23T03:54:45.277Z,59.17
2023-05-23T03:57:12.866Z,59.42
2023-05-23T03:59:39.705Z,59.68
2023-05-23T04:02:09.939Z,59.42
2023-05-23T04:04:36.693Z,59.44
2023-05-23T04:07:04.654Z,59.52
2023-05-23T04:09:31.721Z,59.76
2023-05-23T04:11:59.654Z,59.82
2023-05-23T04:14:27.553Z,59.96
2023-05-23T04:16:55.446Z,60.06
2023-05-23T04:19:23.040Z,60.36
2023-05-23T04:21:51.923Z,60.04
2023-05-23T04:24:19.301Z,60.45
2023-05-23T04:26:46.517Z,60.62
2023-05-23T04:29:13.241Z,60.86
2023-05-23T04:31:40.033Z,60.57
2023-05-23T04:34:06.879Z,60.41
2023-05-23T04:36:38.024Z,60.71
2023-05-23T04:39:06.109Z,61.19
2023-05-23T04:41:36.878Z,60.23
2023-05-23T04:44:08.829Z,59.87
2023-05-23T04:46:39.994Z,60.11
2023-05-23T04:49:23.040Z,59.83
2023-05-23T04:51:50.781Z,59.57
2023-05-23T04:54:21.277Z,59.58
2023-05-23T04:56:48.017Z,59.79
2023-05-23T04:59:17.815Z,59.73
2023-05-23T05:01:44.606Z,59.66
2023-05-23T05:04:12.751Z,61.41
2023-05-23T05:06:41.135Z,59.65
2023-05-23T05:09:09.386Z,59.79
2023-05-23T05:11:36.144Z,60.06
2023-05-23T05:14:03.169Z,59.81
2023-05-23T05:16:30.346Z,59.56
2023-05-23T05:18:57.170Z,59.57
2023-05-23T05:21:23.883Z,59.58
2023-05-23T05:23:50.748Z,59.50
2023-05-23T05:26:17.853Z,59.38
2023-05-23T05:28:44.660Z,59.32
2023-05-23T05:31:12.187Z,59.26
2023-05-23T05:33:39.711Z,59.23
2023-05-23T05:36:12.675Z,59.24
2023-05-23T05:38:40.248Z,59.07
2023-05-23T05:41:09.101Z,58.99
2023-05-23T05:43:39.745Z,58.90
2023-05-23T05:46:06.442Z,58.91
2023-05-23T05:48:33.488Z,58.81
2023-05-23T05:51:05.366Z,59.01
2023-05-23T05:53:33.650Z,59.35
2023-05-23T05:56:01.009Z,59.09
2023-05-23T05:58:28.804Z,58.96
2023-05-23T06:01:01.868Z,58.82
2023-05-23T06:03:28.811Z,58.58
2023-05-23T06:05:56.096Z,58.43
2023-05-23T06:08:23.115Z,58.41
2023-05-23T06:10:49.946Z,58.05
2023-05-23T06:13:17.087Z,57.98
2023-05-23T06:15:47.627Z,58.12
2023-05-23T06:18:14.416Z,57.32
2023-05-23T06:20:41.420Z,57.71
2023-05-23T06:23:13.015Z,57.57
2023-05-23T06:25:40.355Z,57.30
2023-05-23T06:28:06.997Z,57.15
2023-05-23T06:30:33.856Z,57.40
2023-05-23T06:33:00.478Z,56.91
2023-05-23T06:35:27.129Z,57.18
2023-05-23T06:37:53.940Z,57.55
2023-05-23T06:40:20.762Z,57.47
2023-05-23T06:42:47.540Z,57.77
2023-05-23T06:45:24.268Z,57.54
2023-05-23T06:47:51.345Z,57.40
2023-05-23T06:50:18.480Z,57.45
2023-05-23T06:52:45.227Z,57.26
2023-05-23T06:55:12.117Z,57.15
2023-05-23T06:57:39.366Z,57.06
2023-05-23T07:00:06.924Z,57.01
2023-05-23T07:02:39.959Z,57.25
2023-05-23T07:05:07.275Z,57.84
2023-05-23T07:07:52.267Z,58.10
2023-05-23T07:10:19.506Z,57.62
2023-05-23T07:12:48.062Z,57.53
2023-05-23T07:15:16.717Z,57.38
2023-05-23T07:18:05.209Z,56.80
2023-05-23T07:20:35.522Z,56.90
2023-05-23T07:23:10.881Z,56.48
2023-05-23T07:25:40.413Z,56.88
2023-05-23T07:28:20.260Z,56.93
2023-05-23T07:30:47.150Z,56.94
2023-05-23T07:33:14.271Z,56.69
2023-05-23T07:35:44.504Z,55.97
2023-05-23T07:38:11.241Z,55.63
2023-05-23T07:40:38.082Z,54.86
2023-05-23T07:43:05.298Z,54.76
2023-05-23T07:45:32.415Z,55.13
2023-05-23T07:48:00.523Z,54.71
2023-05-23T07:50:28.548Z,54.92
2023-05-23T07:52:55.259Z,54.23
2023-05-23T07:55:27.888Z,54.36
2023-05-23T07:57:55.174Z,53.92
2023-05-23T08:00:22.091Z,53.60
2023-05-23T08:02:54.846Z,53.62
2023-05-23T08:05:27.350Z,53.71
2023-05-23T08:07:56.592Z,53.76
2023-05-23T08:10:24.433Z,53.67
2023-05-23T08:12:52.786Z,53.16
2023-05-23T08:15:19.750Z,53.21
2023-05-23T08:17:51.623Z,53.10
2023-05-23T08:20:18.394Z,53.45
2023-05-23T08:22:46.048Z,52.65
2023-05-23T08:25:12.683Z,52.36
2023-05-23T08:27:40.651Z,52.49
2023-05-23T08:30:29.860Z,52.68
2023-05-23T08:32:57.563Z,52.71
2023-05-23T08:35:24.275Z,52.65
2023-05-23T08:37:51.656Z,53.23
2023-05-23T08:40:22.974Z,52.57
2023-05-23T08:43:03.387Z,52.42
2023-05-23T08:45:31.082Z,52.63
2023-05-23T08:48:00.573Z,52.81
2023-05-23T08:50:30.301Z,52.09
2023-05-23T08:52:59.951Z,51.87
2023-05-23T08:55:29.456Z,51.83
2023-05-23T08:57:59.155Z,52.16
2023-05-23T09:00:52.815Z,51.99
2023-05-23T09:03:20.686Z,51.38
2023-05-23T09:06:12.065Z,51.37
2023-05-23T09:08:39.406Z,51.74
2023-05-23T09:11:06.668Z,51.20
2023-05-23T09:13:37.180Z,51.31
2023-05-23T09:16:11.203Z,51.17
2023-05-23T09:18:44.601Z,50.44
2023-05-23T09:21:14.544Z,50.50
2023-05-23T09:23:59.136Z,50.48
2023-05-23T09:26:27.224Z,50.56
2023-05-23T09:28:58.233Z,50.39
2023-05-23T09:31:27.411Z,50.66
2023-05-23T09:33:54.189Z,50.34
2023-05-23T09:36:20.822Z,50.57
2023-05-23T09:38:48.176Z,50.67
2023-05-23T09:41:15.033Z,50.67
2023-05-23T09:43:52.328Z,50.32
2023-05-23T09:46:21.306Z,50.28
2023-05-23T09:51:20.098Z,50.08
2023-05-23T09:56:15.911Z,50.55
2023-05-23T09:58:47.306Z,50.43
2023-05-23T10:01:15.281Z,50.30
2023-05-23T10:03:51.825Z,49.87
2023-05-23T10:06:51.209Z,50.19
2023-05-23T10:09:20.712Z,49.40
2023-05-23T10:12:24.965Z,49.08
2023-05-23T10:14:55.609Z,48.85
2023-05-23T10:17:46.984Z,48.92
2023-05-23T10:20:16.899Z,49.31
2023-05-23T10:22:43.660Z,49.69
2023-05-23T10:25:10.893Z,49.42
2023-05-23T10:27:40.871Z,48.51
2023-05-23T10:30:08.673Z,48.82
2023-05-23T10:32:37.358Z,48.49
2023-05-23T10:35:45.910Z,48.74
2023-05-23T10:38:34.396Z,48.56
2023-05-23T10:41:10.777Z,48.80
2023-05-23T10:43:40.247Z,48.58
2023-05-23T10:46:09.974Z,48.83
2023-05-23T10:48:42.455Z,48.31
2023-05-23T10:51:10.900Z,48.97
2023-05-23T10:53:43.200Z,48.66
2023-05-23T10:56:12.111Z,47.90
2023-05-23T10:58:39.708Z,48.07
2023-05-23T11:01:15.477Z,47.80
2023-05-23T11:03:49.928Z,47.70
2023-05-23T11:06:42.285Z,47.93
2023-05-23T11:09:17.506Z,47.93
2023-05-23T11:12:02.045Z,48.38
2023-05-23T11:14:37.979Z,47.72
2023-05-23T11:17:13.293Z,47.94
2023-05-23T11:19:40.257Z,47.52
2023-05-23T11:22:10.195Z,47.78
2023-05-23T11:24:53.243Z,47.85
2023-05-23T11:27:36.526Z,46.85
2023-05-23T11:30:07.697Z,45.77
2023-05-23T11:32:35.289Z,46.07
2023-05-23T11:35:04.463Z,45.67
2023-05-23T11:37:31.756Z,46.21
2023-05-23T11:39:58.661Z,46.29
2023-05-23T11:42:25.795Z,45.45
2023-05-23T11:44:52.933Z,45.46
2023-05-23T11:47:20.087Z,46.56
2023-05-23T11:49:47.447Z,45.91
2023-05-23T11:52:14.468Z,46.60
2023-05-23T11:54:44.356Z,47.12
2023-05-23T11:57:11.480Z,46.93
2023-05-23T11:59:38.770Z,45.34
2023-05-23T12:02:06.876Z,44.34
2023-05-23T12:04:35.422Z,44.81
2023-05-23T12:07:05.023Z,44.22
2023-05-23T12:09:31.710Z,43.90
2023-05-23T12:11:58.406Z,44.08
2023-05-23T12:14:29.047Z,43.91
2023-05-23T12:16:55.796Z,44.27
2023-05-23T12:19:22.465Z,45.17
2023-05-23T12:21:50.145Z,43.71
2023-05-23T12:24:18.029Z,42.36
2023-05-23T12:26:52.037Z,43.26
2023-05-23T12:29:20.480Z,42.95
2023-05-23T12:31:50.730Z,42.92
2023-05-23T12:34:18.027Z,43.22
2023-05-23T12:36:48.952Z,42.03
2023-05-23T12:39:16.592Z,42.54
2023-05-23T12:41:43.576Z,42.95
2023-05-23T12:44:10.289Z,42.90
2023-05-23T12:46:37.393Z,42.89
2023-05-23T12:49:04.104Z,43.20
2023-05-23T12:51:30.748Z,43.14
2023-05-23T12:53:57.415Z,43.52
2023-05-23T12:56:24.185Z,43.03
2023-05-23T12:58:50.813Z,42.61
2023-05-23T13:01:17.469Z,42.72
2023-05-23T13:03:44.150Z,42.32
2023-05-23T13:06:10.879Z,42.84
2023-05-23T13:08:37.786Z,42.94
2023-05-23T13:11:04.863Z,43.40
2023-05-23T13:13:31.528Z,42.78
2023-05-23T13:15:58.551Z,42.66
2023-05-23T13:18:25.569Z,42.99
2023-05-23T13:20:53.311Z,43.86
2023-05-23T13:23:20.076Z,44.15
2023-05-23T13:25:46.827Z,44.12
2023-05-23T13:28:13.444Z,45.13
2023-05-23T13:30:40.169Z,44.21
2023-05-23T13:33:07.134Z,44.54
2023-05-23T13:35:33.958Z,44.97
2023-05-23T13:38:00.808Z,43.93
2023-05-23T13:40:27.451Z,43.70
2023-05-23T13:42:54.332Z,44.17
2023-05-23T13:45:21.151Z,44.08
2023-05-23T13:47:47.876Z,44.35
2023-05-23T13:50:14.716Z,43.99
2023-05-23T13:52:44.865Z,44.37
2023-05-23T13:55:13.359Z,44.11
2023-05-23T13:57:39.998Z,43.46
2023-05-23T14:00:07.376Z,43.49
2023-05-23T14:02:34.712Z,43.45
2023-05-23T14:05:01.622Z,43.56
2023-05-23T14:07:28.406Z,43.63
2023-05-23T14:09:55.075Z,43.11
2023-05-23T14:12:21.825Z,43.99
2023-05-23T14:14:48.431Z,44.39
2023-05-23T14:17:16.235Z,44.77
2023-05-23T14:19:43.392Z,44.87
2023-05-23T14:22:10.155Z,45.02
2023-05-23T14:24:37.020Z,45.53
2023-05-23T14:27:04.272Z,46.03
2023-05-23T14:29:30.965Z,46.50
2023-05-23T14:31:57.604Z,46.69
2023-05-23T14:34:24.289Z,46.94
2023-05-23T14:36:51.008Z,46.76
2023-05-23T14:39:17.646Z,47.22
2023-05-23T14:41:44.393Z,47.25
2023-05-23T14:44:10.988Z,47.32
2023-05-23T14:46:37.679Z,47.74
2023-05-23T14:49:04.374Z,47.59
2023-05-23T14:51:44.918Z,48.73
2023-05-23T14:54:15.575Z,49.18
2023-05-23T14:56:42.178Z,48.77
2023-05-23T14:59:09.088Z,48.28
2023-05-23T15:01:37.979Z,47.95
2023-05-23T15:04:06.251Z,48.16
2023-05-23T15:06:32.980Z,47.61
2023-05-23T15:08:59.598Z,47.66
2023-05-23T15:11:27.722Z,47.85
2023-05-23T15:13:54.569Z,47.21
2023-05-23T15:16:21.262Z,47.34
2023-05-23T15:18:48.063Z,47.58
2023-05-23T15:21:14.906Z,47.60
2023-05-23T15:23:41.673Z,47.66
2023-05-23T15:26:08.498Z,47.22
2023-05-23T15:31:01.785Z,47.13
2023-05-23T15:33:28.457Z,47.53
2023-05-23T15:35:55.153Z,47.40
2023-05-23T15:38:21.765Z,47.39
2023-05-23T15:40:48.411Z,47.50
2023-05-23T15:43:15.142Z,47.40
2023-05-23T15:45:41.813Z,47.54
2023-05-23T15:48:08.553Z,47.58
2023-05-23T15:50:35.349Z,47.71
2023-05-23T15:53:02.196Z,48.19
2023-05-23T15:55:28.970Z,47.90
2023-05-23T15:57:55.636Z,48.17
2023-05-23T16:00:22.395Z,48.79
2023-05-23T16:02:49.111Z,48.92
2023-05-23T16:05:15.794Z,49.46
2023-05-23T16:07:42.586Z,49.35
2023-05-23T16:10:09.955Z,50.24
2023-05-23T16:12:36.577Z,50.52
2023-05-23T16:15:03.557Z,50.25
2023-05-23T16:17:30.217Z,50.38
2023-05-23T16:19:56.805Z,50.54
2023-05-23T16:22:23.764Z,50.64
2023-05-23T16:24:55.349Z,50.86
2023-05-23T16:27:23.398Z,50.63
2023-05-23T16:29:50.071Z,50.96
2023-05-23T16:32:16.682Z,51.13
2023-05-23T16:34:46.892Z,50.95
2023-05-23T16:37:16.393Z,51.44
2023-05-23T16:39:43.012Z,51.59
2023-05-23T16:42:09.688Z,51.47
2023-05-23T16:44:36.336Z,51.53
2023-05-23T16:47:03.018Z,51.31
2023-05-23T16:49:29.663Z,51.43
2023-05-23T16:51:56.342Z,50.95
2023-05-23T16:54:22.974Z,50.38
2023-05-23T16:56:49.638Z,49.76
2023-05-23T16:59:16.325Z,48.72
2023-05-23T17:01:42.948Z,48.07
2023-05-23T17:04:09.801Z,47.87
2023-05-23T17:06:36.429Z,47.10
2023-05-23T17:09:03.243Z,47.20
2023-05-23T17:11:29.928Z,45.25
2023-05-23T17:13:56.666Z,44.87
2023-05-23T17:16:23.407Z,45.21
2023-05-23T17:18:50.141Z,43.53
2023-05-23T17:21:16.885Z,43.35
2023-05-23T17:23:43.530Z,43.89
2023-05-23T17:26:10.358Z,44.23
2023-05-23T17:28:36.976Z,44.06
2023-05-23T17:31:03.659Z,44.03
2023-05-23T17:33:30.353Z,43.63
2023-05-23T17:35:57.078Z,44.44
2023-05-23T17:38:24.236Z,44.52
2023-05-23T17:40:50.877Z,44.42
2023-05-23T17:43:17.532Z,43.87
2023-05-23T17:45:44.215Z,43.54
2023-05-23T17:48:10.965Z,43.92
2023-05-23T17:50:37.797Z,43.69
2023-05-23T17:53:05.702Z,43.60
2023-05-23T17:55:32.425Z,43.79
2023-05-23T17:57:59.059Z,43.70
2023-05-23T18:00:25.808Z,43.94
2023-05-23T18:02:52.598Z,44.29
2023-05-23T18:05:21.514Z,43.68
2023-05-23T18:07:48.147Z,43.47
2023-05-23T18:10:14.873Z,43.22
2023-05-23T18:12:41.506Z,43.14
2023-05-23T18:15:08.929Z,43.60
2023-05-23T18:17:35.845Z,43.95
2023-05-23T18:20:02.684Z,44.24
2023-05-23T18:22:29.330Z,44.24
2023-05-23T18:24:55.948Z,44.24
2023-05-23T18:27:22.734Z,44.44
2023-05-23T18:29:49.449Z,44.08
2023-05-23T18:32:16.115Z,44.26
2023-05-23T18:34:42.757Z,44.29
2023-05-23T18:37:09.375Z,44.34
2023-05-23T18:39:36.110Z,44.52
2023-05-23T18:42:03.067Z,44.91
2023-05-23T18:44:29.660Z,44.77
2023-05-23T18:46:56.410Z,44.93
2023-05-23T18:49:23.179Z,44.99
2023-05-23T18:51:49.819Z,45.25
2023-05-23T18:54:16.399Z,45.08
2023-05-23T18:56:43.051Z,45.05
2023-05-23T18:59:09.699Z,45.30
2023-05-23T19:01:36.375Z,45.03
2023-05-23T19:04:03.093Z,45.37
2023-05-23T19:06:29.817Z,45.34
2023-05-23T19:08:56.436Z,45.49
2023-05-23T19:11:23.689Z,45.75
2023-05-23T19:13:50.436Z,45.63
2023-05-23T19:16:17.133Z,45.84
2023-05-23T19:18:43.901Z,46.11
2023-05-23T19:21:10.532Z,46.03
2023-05-23T19:23:38.684Z,45.78
2023-05-23T19:26:05.400Z,45.93
2023-05-23T19:28:32.000Z,45.95
2023-05-23T19:30:58.615Z,46.29
2023-05-23T19:33:25.374Z,46.31
2023-05-23T19:35:51.965Z,46.08
2023-05-23T19:38:18.762Z,46.58
2023-05-23T19:40:46.664Z,46.36
2023-05-23T19:43:13.360Z,46.33
2023-05-23T19:45:40.112Z,46.46
2023-05-23T19:48:07.007Z,46.67
2023-05-23T19:50:33.625Z,46.81
2023-05-23T19:53:00.303Z,46.89
2023-05-23T19:55:27.531Z,46.73
2023-05-23T19:57:54.221Z,47.13
2023-05-23T20:00:20.918Z,47.10
2023-05-23T20:02:47.888Z,47.00
2023-05-23T20:05:14.685Z,47.13
2023-05-23T20:07:41.301Z,47.00
2023-05-23T20:10:08.760Z,47.27
2023-05-23T20:12:35.671Z,47.23
2023-05-23T20:15:03.072Z,47.48
2023-05-23T20:17:29.835Z,47.61
2023-05-23T20:19:56.557Z,47.75
2023-05-23T20:22:23.305Z,47.71
2023-05-23T20:24:50.031Z,47.86
2023-05-23T20:27:16.658Z,48.02
2023-05-23T20:29:43.263Z,48.10
2023-05-23T20:32:10.134Z,48.37
2023-05-23T20:34:36.739Z,48.08
2023-05-23T20:37:03.464Z,48.23
2023-05-23T20:39:30.135Z,48.51
2023-05-23T20:41:56.865Z,48.72
2023-05-23T20:44:23.516Z,48.94
2023-05-23T20:46:50.261Z,49.11
2023-05-23T20:49:16.898Z,48.93
2023-05-23T20:51:43.576Z,49.21
2023-05-23T20:54:10.311Z,49.15
2023-05-23T20:56:37.057Z,49.46
2023-05-23T20:59:03.701Z,49.22
2023-05-23T21:01:30.505Z,49.42
2023-05-23T21:03:57.345Z,49.60
2023-05-23T21:06:23.971Z,49.69
2023-05-23T21:08:50.622Z,49.56
2023-05-23T21:11:17.236Z,50.00
2023-05-23T21:13:43.914Z,49.78
2023-05-23T21:16:10.592Z,50.24
2023-05-23T21:18:37.201Z,50.28
2023-05-23T21:21:04.017Z,50.08
2023-05-23T21:23:30.621Z,50.33
2023-05-23T21:25:57.220Z,50.41
2023-05-23T21:28:23.872Z,50.78
2023-05-23T21:30:51.054Z,50.66
2023-05-23T21:33:17.680Z,50.75
2023-05-23T21:35:44.381Z,51.15
2023-05-23T21:38:11.340Z,51.25
2023-05-23T21:40:38.012Z,51.35
2023-05-23T21:43:04.702Z,51.48
2023-05-23T21:45:31.458Z,51.43
2023-05-23T21:47:58.372Z,51.68
2023-05-23T21:50:25.062Z,51.76
2023-05-23T21:52:51.661Z,51.96
2023-05-23T21:55:18.298Z,52.16
2023-05-23T21:57:44.963Z,52.25
2023-05-23T22:00:12.225Z,52.22
2023-05-23T22:02:41.623Z,52.13
2023-05-23T22:05:08.400Z,52.36
2023-05-23T22:07:35.218Z,52.18
2023-05-23T22:10:02.012Z,52.49
2023-05-23T22:12:28.725Z,52.61
2023-05-23T22:14:55.501Z,52.51
2023-05-23T22:17:22.211Z,52.53
2023-05-23T22:19:49.058Z,52.50
2023-05-23T22:22:15.665Z,52.53
2023-05-23T22:24:42.385Z,52.92
2023-05-23T22:27:09.080Z,52.66
2023-05-23T22:29:35.901Z,52.73
2023-05-23T22:32:02.626Z,52.72
2023-05-23T22:34:29.536Z,52.91
2023-05-23T22:36:58.247Z,52.78
2023-05-23T22:39:26.733Z,53.01
2023-05-23T22:41:53.575Z,53.01
2023-05-23T22:44:20.296Z,53.08
2023-05-23T22:46:47.044Z,52.91
2023-05-23T22:49:13.688Z,53.10
2023-05-23T22:51:40.577Z,53.14
2023-05-23T22:54:07.326Z,53.14
2023-05-23T22:56:33.918Z,52.90
2023-05-23T22:59:00.613Z,53.08
2023-05-23T23:01:27.286Z,53.25
2023-05-23T23:03:54.019Z,53.04
2023-05-23T23:06:20.794Z,53.16
2023-05-23T23:08:47.578Z,53.02
2023-05-23T23:11:14.398Z,53.29
2023-05-23T23:13:41.068Z,53.55
2023-05-23T23:16:08.004Z,53.56
2023-05-23T23:18:34.709Z,53.63
2023-05-23T23:21:01.338Z,53.95
2023-05-23T23:23:27.970Z,54.24
2023-05-23T23:25:54.695Z,54.34
2023-05-23T23:28:21.605Z,54.45
2023-05-23T23:30:48.286Z,54.65
2023-05-23T23:33:15.058Z,54.71
2023-05-23T23:35:41.912Z,54.69
2023-05-23T23:38:08.663Z,54.70
2023-05-23T23:40:35.354Z,54.90
2023-05-23T23:43:02.059Z,54.97
2023-05-23T23:45:28.692Z,54.88
2023-05-23T23:47:55.436Z,55.09
2023-05-23T23:50:22.222Z,55.06
2023-05-23T23:52:48.870Z,55.01
2023-05-23T23:55:15.489Z,55.19
2023-05-23T23:57:42.122Z,55.03
